Time;durP1;ratioP1;P1;durP2;ratioP2;P2;SDS_P1;SDS_P2;PMS_P1;PMS_P2;Temp;Humidity;BMP_temperature;BMP_pressure;BME280_temperature;BME280_humidity;BME280_pressure;Samples;Min_cycle;Max_cycle;Signal;HPM_P1;HPM_P2
2024/01/21 00:01:14;;;;;;;19.38;13.10;;;;;;;14.67;40.49;102407.78;5006529;28;20112;-40
2024/01/21 00:03:41;;;;;;;19.83;13.10;;;;;;;14.53;41.56;102405.94;5007513;28;20081;-40
2024/01/21 00:06:08;;;;;;;20.55;13.57;;;;;;;14.39;41.06;102405.91;5007709;28;20388;-39
2024/01/21 00:08:35;;;;;;;21.00;13.65;;;;;;;14.27;41.60;102401.25;5003145;28;20050;-39
2024/01/21 00:11:02;;;;;;;17.33;12.38;;;;;;;14.17;41.98;102402.78;5002434;28;20103;-40
2024/01/21 00:13:29;;;;;;;18.35;12.73;;;;;;;14.09;41.96;102395.22;5007566;28;20096;-38
2024/01/21 00:15:55;;;;;;;19.58;12.23;;;;;;;14.00;42.52;102388.63;5004541;28;20131;-39
2024/01/21 00:18:22;;;;;;;18.15;11.77;;;;;;;13.92;41.81;102382.03;5006275;28;20523;-40
2024/01/21 00:20:49;;;;;;;20.13;13.02;;;;;;;13.88;42.04;102388.50;5004940;28;20384;-39
2024/01/21 00:23:16;;;;;;;18.02;12.32;;;;;;;13.83;42.13;102378.09;5003099;28;20057;-40
2024/01/21 00:25:43;;;;;;;17.95;11.68;;;;;;;13.79;42.37;102372.09;5008900;28;20057;-41
2024/01/21 00:28:10;;;;;;;18.10;11.63;;;;;;;13.76;42.04;102369.59;5006974;28;20112;-39
2024/01/21 00:30:36;;;;;;;15.95;11.10;;;;;;;13.72;42.59;102365.38;5017897;28;20082;-39
2024/01/21 00:33:03;;;;;;;17.02;11.13;;;;;;;13.71;41.99;102355.69;5003215;28;20521;-40
2024/01/21 00:35:30;;;;;;;16.27;10.63;;;;;;;13.68;42.13;102352.31;5002361;28;20129;-37
2024/01/21 00:37:56;;;;;;;15.88;10.88;;;;;;;13.67;42.26;102354.13;5005135;28;20397;-39
2024/01/21 00:40:23;;;;;;;16.67;11.20;;;;;;;13.66;42.34;102349.72;5003719;28;20119;-39
2024/01/21 00:42:49;;;;;;;21.13;10.68;;;;;;;13.66;41.91;102351.53;5006333;28;20061;-39
2024/01/21 00:45:16;;;;;;;14.75;10.23;;;;;;;13.66;42.21;102344.41;5007546;28;20153;-38
2024/01/21 00:47:43;;;;;;;14.73;9.95;;;;;;;13.67;42.46;102340.81;5007610;28;20545;-38
2024/01/21 00:50:10;;;;;;;14.27;9.60;;;;;;;13.66;42.15;102331.09;5001876;28;20061;-38
2024/01/21 00:52:36;;;;;;;13.85;9.23;;;;;;;13.66;41.91;102316.91;5006003;28;20249;-41
2024/01/21 00:55:03;;;;;;;14.63;9.77;;;;;;;13.64;41.87;102309.00;5020639;28;20362;-40
2024/01/21 00:57:30;;;;;;;14.00;9.27;;;;;;;13.63;41.87;102301.09;5008730;28;20061;-38
2024/01/21 00:59:57;;;;;;;13.73;9.02;;;;;;;13.62;42.42;102294.91;5007402;28;20124;-40
2024/01/21 01:02:23;;;;;;;13.45;9.10;;;;;;;13.61;41.88;102281.69;5005817;28;20145;-40
2024/01/21 01:04:51;;;;;;;12.00;7.95;;;;;;;13.61;41.33;102279.88;5006165;28;20224;-39
2024/01/21 01:07:18;;;;;;;11.90;8.20;;;;;;;13.59;41.85;102279.13;5006515;28;20071;-39
2024/01/21 01:09:44;;;;;;;11.05;8.18;;;;;;;13.58;41.66;102269.41;5007410;28;20046;-40
2024/01/21 01:12:11;;;;;;;12.93;8.50;;;;;;;13.56;41.93;102263.31;5007107;28;20054;-40
2024/01/21 01:14:42;;;;;;;9.77;7.15;;;;;;;13.54;41.69;102255.41;5005285;28;20448;-39
2024/01/21 01:17:08;;;;;;;10.50;7.45;;;;;;;13.53;41.66;102237.72;5007230;28;20135;-40
2024/01/21 01:19:35;;;;;;;10.25;7.57;;;;;;;13.53;41.53;102231.53;5005300;28;20050;-37
2024/01/21 01:22:02;;;;;;;11.23;7.22;;;;;;;13.51;41.64;102236.97;5005378;28;20397;-37
2024/01/21 01:24:29;;;;;;;10.13;7.20;;;;;;;13.61;41.17;102220.41;5003537;28;20112;-38
2024/01/21 01:26:55;;;;;;;9.68;6.72;;;;;;;13.74;41.27;102224.06;5006976;28;20064;-38
2024/01/21 01:29:22;;;;;;;10.90;7.20;;;;;;;13.90;41.27;102227.50;5005857;28;20116;-41
2024/01/21 01:31:48;;;;;;;9.57;6.25;;;;;;;14.07;40.68;102229.19;5006014;28;20148;-40
2024/01/21 01:34:15;;;;;;;10.23;6.10;;;;;;;14.22;40.17;102233.53;5004367;28;20085;-40
2024/01/21 01:36:42;;;;;;;10.95;6.47;;;;;;;14.39;40.62;102220.97;5007505;28;20049;-40
2024/01/21 01:39:09;;;;;;;9.32;6.20;;;;;;;14.54;40.24;102225.38;5005333;28;20054;-39
2024/01/21 01:41:36;;;;;;;10.43;6.53;;;;;;;14.69;39.58;102226.22;5004271;28;20081;-41
2024/01/21 01:44:03;;;;;;;7.57;5.65;;;;;;;14.84;39.80;102216.38;5004775;28;20049;-40
2024/01/21 01:46:30;;;;;;;10.68;6.40;;;;;;;14.97;38.94;102215.47;5002731;28;20062;-41
2024/01/21 01:48:57;;;;;;;8.38;5.72;;;;;;;15.10;38.67;102206.66;5003682;28;20151;-41
2024/01/21 01:51:24;;;;;;;9.60;5.97;;;;;;;15.19;38.73;102195.38;5006205;28;20065;-41
2024/01/21 01:53:51;;;;;;;7.30;5.10;;;;;;;15.26;38.89;102199.34;5008481;28;20049;-42
2024/01/21 01:56:18;;;;;;;6.72;4.82;;;;;;;15.30;38.25;102196.38;5008010;28;20053;-41
2024/01/21 01:58:46;;;;;;;7.97;5.50;;;;;;;15.33;38.72;102187.31;5005508;28;20045;-41
2024/01/21 02:01:13;;;;;;;9.25;5.10;;;;;;;15.35;38.48;102189.84;5002140;28;20353;-41
2024/01/21 02:03:40;;;;;;;8.88;5.03;;;;;;;15.35;37.78;102187.19;5003790;28;20046;-41
2024/01/21 02:06:07;;;;;;;7.90;5.15;;;;;;;15.33;37.74;102197.97;5003294;28;20481;-40
2024/01/21 02:08:33;;;;;;;7.82;5.15;;;;;;;15.30;38.69;102190.16;5002387;28;20050;-41
2024/01/21 02:11:00;;;;;;;7.88;5.10;;;;;;;15.27;38.47;102183.19;5005528;28;20446;-39
2024/01/21 02:13:28;;;;;;;6.57;4.45;;;;;;;15.23;38.31;102181.69;5007724;28;20136;-39
2024/01/21 02:15:55;;;;;;;5.75;4.35;;;;;;;15.23;38.08;102172.84;5002779;28;20453;-41
2024/01/21 02:18:21;;;;;;;6.45;4.38;;;;;;;15.21;38.41;102161.41;5005298;28;20050;-39
2024/01/21 02:20:49;;;;;;;7.38;4.80;;;;;;;15.18;37.55;102156.28;5000976;28;20413;-41
2024/01/21 02:23:15;;;;;;;6.32;4.53;;;;;;;15.14;37.94;102131.59;5002484;28;20050;-40
2024/01/21 02:25:42;;;;;;;5.70;4.18;;;;;;;15.12;37.54;102146.00;5002292;28;20077;-41
2024/01/21 02:28:08;;;;;;;6.85;4.28;;;;;;;15.09;38.12;102146.22;5001932;28;20054;-38
2024/01/21 02:30:40;;;;;;;6.88;4.30;;;;;;;15.04;38.10;102131.34;5006762;28;20081;-41
2024/01/21 02:33:08;;;;;;;5.32;4.00;;;;;;;15.01;37.26;102112.88;5006072;28;20050;-39
2024/01/21 02:35:36;;;;;;;5.00;3.53;;;;;;;14.99;37.70;102111.25;5006396;28;20123;-41
2024/01/21 02:38:04;;;;;;;5.85;3.90;;;;;;;14.96;37.71;102092.78;5005066;28;20132;-41
2024/01/21 02:40:31;;;;;;;5.55;3.70;;;;;;;14.92;37.85;102096.63;5007612;28;20049;-41
2024/01/21 02:42:57;;;;;;;5.68;3.83;;;;;;;14.92;37.02;102096.63;5006873;28;20057;-40
2024/01/21 02:45:24;;;;;;;6.20;4.10;;;;;;;14.91;37.09;102089.53;5005983;28;20080;-39
2024/01/21 02:47:51;;;;;;;4.68;3.63;;;;;;;14.93;37.19;102090.31;5006937;28;20664;-41
2024/01/21 02:50:17;;;;;;;5.30;3.35;;;;;;;14.95;37.66;102086.56;5006634;28;20046;-40
2024/01/21 02:52:44;;;;;;;5.22;3.63;;;;;;;14.97;37.98;102084.66;5008033;28;20461;-41
2024/01/21 02:55:11;;;;;;;6.00;3.75;;;;;;;15.01;37.66;102063.97;5004135;28;20409;-41
2024/01/21 02:57:37;;;;;;;5.63;3.50;;;;;;;15.02;36.97;102071.84;5007191;28;20453;-38
2024/01/21 03:00:04;;;;;;;4.57;3.20;;;;;;;15.05;37.44;102062.78;5004043;28;20062;-41
2024/01/21 03:02:31;;;;;;;4.32;3.42;;;;;;;15.06;37.16;102057.31;5006082;28;20212;-42
2024/01/21 03:04:58;;;;;;;3.85;3.03;;;;;;;15.10;36.96;102063.31;5007470;28;20057;-41
2024/01/21 03:07:24;;;;;;;4.90;3.40;;;;;;;15.11;37.54;102054.34;5006685;28;20064;-41
2024/01/21 03:09:51;;;;;;;5.55;3.33;;;;;;;15.14;36.87;102050.63;5006674;28;20395;-41
2024/01/21 03:12:18;;;;;;;5.18;3.67;;;;;;;15.15;36.18;102042.50;5005672;28;20077;-40
2024/01/21 03:14:44;;;;;;;5.05;3.33;;;;;;;15.15;36.10;102041.63;5004765;28;20111;-41
2024/01/21 03:17:11;;;;;;;6.45;3.40;;;;;;;15.15;36.58;102042.50;5006113;28;20084;-40
2024/01/21 03:19:38;;;;;;;5.32;3.22;;;;;;;15.15;36.71;102034.47;5007318;28;20108;-40
2024/01/21 03:22:05;;;;;;;4.22;3.17;;;;;;;15.14;36.79;102038.13;5007651;28;20081;-41
2024/01/21 03:24:31;;;;;;;4.72;3.40;;;;;;;15.13;36.15;102031.06;5004580;28;20081;-40
2024/01/21 03:26:58;;;;;;;3.72;3.10;;;;;;;15.11;36.51;102024.97;5009042;28;20389;-39
2024/01/21 03:29:25;;;;;;;4.13;2.70;;;;;;;15.08;35.71;102025.22;5010051;28;20050;-42
2024/01/21 03:31:52;;;;;;;3.85;2.78;;;;;;;15.04;35.97;102037.91;5008101;28;20070;-42
2024/01/21 03:34:18;;;;;;;4.00;2.92;;;;;;;15.01;35.97;102038.09;5005160;28;20065;-40
2024/01/21 03:36:45;;;;;;;4.72;3.10;;;;;;;14.97;35.92;102022.41;5005845;28;20096;-41
2024/01/21 03:39:12;;;;;;;3.75;2.72;;;;;;;14.94;36.52;102017.28;5005939;28;20141;-39
2024/01/21 03:41:38;;;;;;;4.32;3.17;;;;;;;14.90;36.00;102003.28;5005917;28;20054;-40
2024/01/21 03:44:05;;;;;;;4.30;3.05;;;;;;;14.88;36.95;102007.03;5008247;28;20053;-39
2024/01/21 03:46:32;;;;;;;3.78;2.80;;;;;;;14.85;36.07;102002.75;5008514;28;20061;-40
2024/01/21 03:48:58;;;;;;;3.50;2.50;;;;;;;14.81;36.48;101999.41;5009771;28;20049;-41
2024/01/21 03:51:25;;;;;;;4.13;2.90;;;;;;;14.78;36.74;102004.09;5006791;28;20137;-41
2024/01/21 03:53:52;;;;;;;5.28;3.17;;;;;;;14.76;36.44;101993.56;5004789;28;20050;-40
2024/01/21 03:56:19;;;;;;;3.28;2.60;;;;;;;14.75;35.67;101973.16;5006968;28;20045;-40
2024/01/21 03:58:46;;;;;;;3.53;2.75;;;;;;;14.75;35.86;101967.81;5005877;28;20042;-41
2024/01/21 04:01:13;;;;;;;3.53;2.92;;;;;;;14.77;36.46;101976.56;5005394;28;20045;-41
2024/01/21 04:03:39;;;;;;;4.78;3.15;;;;;;;14.80;36.51;101955.00;5006125;28;20050;-41
2024/01/21 04:06:06;;;;;;;4.88;2.80;;;;;;;14.85;35.86;101965.38;5004079;28;20047;-41
2024/01/21 04:08:33;;;;;;;5.97;2.80;;;;;;;14.88;36.62;101946.50;5000867;28;20414;-41
2024/01/21 04:11:00;;;;;;;4.55;2.97;;;;;;;14.93;35.47;101938.16;5004515;28;20136;-41
2024/01/21 04:13:27;;;;;;;3.85;2.53;;;;;;;14.97;36.39;101947.66;5007716;28;20058;-39
2024/01/21 04:15:53;;;;;;;4.97;2.80;;;;;;;15.01;35.38;101933.97;5006690;28;20088;-41
2024/01/21 04:18:20;;;;;;;4.18;2.90;;;;;;;15.04;35.87;101933.78;5006509;28;20141;-41
2024/01/21 04:20:47;;;;;;;4.65;2.90;;;;;;;15.07;35.70;101927.34;5005874;28;20042;-41
2024/01/21 04:23:13;;;;;;;3.97;2.92;;;;;;;15.10;35.40;101912.94;5003575;28;20879;-40
2024/01/21 04:25:40;;;;;;;4.10;2.78;;;;;;;15.10;36.04;101912.94;5007582;28;20119;-40
2024/01/21 04:28:06;;;;;;;3.90;2.85;;;;;;;15.08;35.89;101918.41;5005541;28;20335;-41
2024/01/21 04:30:33;;;;;;;4.20;3.05;;;;;;;15.06;36.08;101907.81;5004309;28;20175;-40
2024/01/21 04:32:59;;;;;;;4.82;2.92;;;;;;;15.05;35.43;101905.25;5005762;28;20050;-41
2024/01/21 04:35:26;;;;;;;3.83;2.85;;;;;;;15.01;35.70;101917.97;5004806;28;20465;-41
2024/01/21 04:37:53;;;;;;;3.35;2.25;;;;;;;14.98;35.38;101922.66;5006688;28;20049;-40
2024/01/21 04:40:19;;;;;;;4.63;2.67;;;;;;;14.95;35.50;101939.72;5005915;28;20038;-40
2024/01/21 04:42:46;;;;;;;3.55;2.58;;;;;;;14.93;35.86;101900.78;5006630;28;20104;-42
2024/01/21 04:45:16;;;;;;;4.30;2.80;;;;;;;14.90;35.70;101919.66;5002857;28;20061;-40
2024/01/21 04:47:43;;;;;;;4.80;2.95;;;;;;;14.87;36.04;101907.38;5006538;28;20342;-40
2024/01/21 04:50:10;;;;;;;3.60;2.60;;;;;;;14.84;35.74;101906.78;4997781;28;20112;-40
2024/01/21 04:52:36;;;;;;;3.92;2.60;;;;;;;14.81;36.06;101919.34;5005851;28;20049;-41
2024/01/21 04:55:03;;;;;;;4.18;2.78;;;;;;;14.81;36.08;101915.84;5003711;28;20060;-41
2024/01/21 04:57:30;;;;;;;4.05;2.90;;;;;;;14.78;35.93;101914.22;5000746;28;20074;-41
2024/01/21 04:59:57;;;;;;;3.97;2.75;;;;;;;14.77;36.25;101917.00;5001442;28;20050;-39
2024/01/21 05:02:23;;;;;;;3.53;2.80;;;;;;;14.75;36.27;101905.56;5002122;28;20090;-41
2024/01/21 05:04:50;;;;;;;4.55;2.80;;;;;;;14.74;36.13;101902.06;5016370;28;20085;-42
2024/01/21 05:07:16;;;;;;;4.30;3.00;;;;;;;14.77;35.86;101917.00;5001869;28;20408;-40
2024/01/21 05:09:43;;;;;;;4.32;3.28;;;;;;;14.81;35.70;101886.47;5000166;28;20054;-41
2024/01/21 05:12:10;;;;;;;4.20;2.90;;;;;;;14.86;36.69;101896.81;5006795;28;20049;-40
2024/01/21 05:14:38;;;;;;;6.03;3.20;;;;;;;14.91;35.72;101906.22;5000144;28;20050;-39
2024/01/21 05:17:04;;;;;;;5.15;2.83;;;;;;;14.96;35.88;101863.19;5000912;28;20773;-41
2024/01/21 05:19:31;;;;;;;5.45;3.25;;;;;;;15.02;36.15;101876.94;5001501;28;20050;-40
2024/01/21 05:21:57;;;;;;;3.58;2.72;;;;;;;15.06;35.68;101862.41;4997200;28;20047;-41
2024/01/21 05:24:24;;;;;;;3.97;3.17;;;;;;;15.12;35.61;101842.44;5004103;28;20045;-41
2024/01/21 05:26:51;;;;;;;3.38;2.58;;;;;;;15.16;35.82;101824.41;5006117;28;20050;-41
2024/01/21 05:29:18;;;;;;;4.82;2.83;;;;;;;15.18;35.87;101812.63;5003817;28;20073;-41
2024/01/21 05:31:45;;;;;;;3.88;3.05;;;;;;;15.19;35.27;101787.63;5001693;28;20104;-41
2024/01/21 05:34:12;;;;;;;4.95;3.17;;;;;;;15.19;35.66;101784.09;5004874;28;20049;-41
2024/01/21 05:36:38;;;;;;;6.10;3.00;;;;;;;15.17;35.99;101818.94;5005075;28;20050;-41
2024/01/21 05:39:05;;;;;;;4.70;2.85;;;;;;;15.14;35.05;101821.81;5003833;28;20410;-41
2024/01/21 05:41:33;;;;;;;4.32;3.08;;;;;;;15.13;35.75;101843.31;5004482;28;20050;-41
2024/01/21 05:43:59;;;;;;;4.32;3.08;;;;;;;15.08;34.96;101811.59;5007397;28;20056;-40
2024/01/21 05:46:26;;;;;;;4.68;2.70;;;;;;;15.06;35.13;101850.88;5004230;28;20058;-41
2024/01/21 05:48:53;;;;;;;4.43;3.20;;;;;;;15.00;35.77;101841.50;5002947;28;20050;-41
2024/01/21 05:51:19;;;;;;;3.47;2.60;;;;;;;14.97;36.06;101824.84;5002025;28;20089;-41
2024/01/21 05:53:46;;;;;;;4.05;2.67;;;;;;;14.94;36.19;101817.06;4999031;28;20460;-40
2024/01/21 05:56:16;;;;;;;4.15;2.90;;;;;;;14.90;35.74;101835.09;5005722;28;20104;-40
2024/01/21 05:58:43;;;;;;;3.83;2.67;;;;;;;14.87;35.61;101832.66;4999792;28;20112;-41
2024/01/21 06:01:09;;;;;;;3.38;2.83;;;;;;;14.85;35.78;101863.09;5002963;28;20476;-43
2024/01/21 06:03:36;;;;;;;3.95;3.13;;;;;;;14.81;36.40;101873.97;5008915;28;20061;-40
2024/01/21 06:06:03;;;;;;;3.55;2.70;;;;;;;14.79;35.55;101843.91;5004410;28;20491;-40
2024/01/21 06:08:30;;;;;;;4.57;3.30;;;;;;;14.76;36.04;101857.44;5004604;28;20568;-40
2024/01/21 06:10:56;;;;;;;5.63;3.20;;;;;;;14.73;35.98;101836.31;5002501;28;20047;-39
2024/01/21 06:13:23;;;;;;;4.07;2.80;;;;;;;14.71;36.40;101834.69;5008221;28;20335;-41
2024/01/21 06:15:49;;;;;;;4.45;3.10;;;;;;;14.68;35.83;101848.28;5007418;28;20402;-41
2024/01/21 06:18:16;;;;;;;4.93;3.03;;;;;;;14.66;36.01;101872.38;5009976;28;20051;-40
2024/01/21 06:20:42;;;;;;;3.63;3.08;;;;;;;14.66;35.41;101839.50;5008006;28;20045;-40
2024/01/21 06:23:09;;;;;;;4.88;2.92;;;;;;;14.65;35.68;101870.69;5004235;28;20145;-41
2024/01/21 06:25:36;;;;;;;4.07;2.90;;;;;;;14.64;36.42;101854.78;4990819;28;20461;-41
2024/01/21 06:28:03;;;;;;;4.22;2.85;;;;;;;14.70;36.53;101862.34;5006419;28;20057;-41
2024/01/21 06:30:30;;;;;;;5.20;2.75;;;;;;;14.77;35.38;101859.16;5005398;28;20046;-40
2024/01/21 06:32:57;;;;;;;4.30;2.85;;;;;;;14.86;35.57;101867.47;5003693;28;20464;-40
2024/01/21 06:35:29;;;;;;;3.50;2.75;;;;;;;14.92;36.04;101878.56;5008403;28;20054;-41
2024/01/21 06:37:56;;;;;;;5.30;3.55;;;;;;;14.97;35.05;101856.88;5007105;28;20054;-40
2024/01/21 06:40:22;;;;;;;4.53;2.92;;;;;;;15.01;35.54;101859.22;5004344;28;20560;-41
2024/01/21 06:42:49;;;;;;;4.22;3.20;;;;;;;15.04;34.72;101850.16;5004598;28;20351;-40
2024/01/21 06:45:16;;;;;;;4.68;3.30;;;;;;;15.05;34.84;101851.84;5005743;28;20132;-40
2024/01/21 06:47:43;;;;;;;5.22;3.10;;;;;;;15.05;35.61;101841.19;5003380;28;20057;-40
2024/01/21 06:50:11;;;;;;;3.95;2.42;;;;;;;15.03;35.39;101814.59;5005975;28;20439;-41
2024/01/21 06:52:37;;;;;;;4.38;3.13;;;;;;;15.01;35.21;101805.84;5004707;28;20061;-39
2024/01/21 06:55:05;;;;;;;4.32;2.85;;;;;;;14.98;35.33;101791.84;5005295;28;20053;-41
2024/01/21 06:57:32;;;;;;;4.45;2.83;;;;;;;14.95;34.75;101771.56;5002661;28;20046;-41
2024/01/21 06:59:59;;;;;;;4.10;2.90;;;;;;;14.92;35.55;101770.97;4999964;28;20582;-41
2024/01/21 07:02:25;;;;;;;4.15;3.10;;;;;;;14.88;34.78;101767.66;5009398;28;20060;-41
2024/01/21 07:04:52;;;;;;;4.35;3.00;;;;;;;14.86;35.35;101742.03;5003887;28;20117;-40
2024/01/21 07:07:18;;;;;;;4.93;3.40;;;;;;;14.81;35.61;101756.56;5004369;28;20492;-40
2024/01/21 07:09:45;;;;;;;5.13;3.47;;;;;;;14.78;35.40;101762.09;5005326;28;20054;-40
2024/01/21 07:12:12;;;;;;;4.43;3.42;;;;;;;14.77;34.87;101764.88;5007644;28;20473;-40
2024/01/21 07:14:39;;;;;;;4.72;3.20;;;;;;;14.74;35.41;101787.31;5004653;28;20366;-40
2024/01/21 07:17:06;;;;;;;5.57;3.13;;;;;;;14.71;35.88;101813.34;5003124;28;20505;-41
2024/01/21 07:19:32;;;;;;;3.80;2.47;;;;;;;14.66;35.47;101824.34;4999598;28;20051;-41
2024/01/21 07:21:59;;;;;;;4.90;3.05;;;;;;;14.64;36.03;101812.94;5008644;28;20046;-39
2024/01/21 07:24:26;;;;;;;4.03;2.97;;;;;;;14.61;35.89;101821.16;5004690;28;20067;-41
2024/01/21 07:26:53;;;;;;;3.42;2.80;;;;;;;14.58;35.84;101816.03;5006876;28;20109;-41
2024/01/21 07:29:19;;;;;;;4.32;3.20;;;;;;;14.56;35.14;101849.97;5006416;28;20050;-41
2024/01/21 07:31:46;;;;;;;4.85;3.65;;;;;;;14.54;35.22;101846.53;5005374;28;20069;-40
2024/01/21 07:34:13;;;;;;;5.30;3.08;;;;;;;14.53;35.26;101837.69;5006563;28;20046;-41
2024/01/21 07:36:40;;;;;;;4.68;3.00;;;;;;;14.51;35.51;101844.09;5005606;28;20096;-40
2024/01/21 07:39:07;;;;;;;4.72;3.17;;;;;;;14.49;35.02;101840.69;5004354;28;20104;-41
2024/01/21 07:41:33;;;;;;;4.00;3.00;;;;;;;14.45;35.46;101850.69;4997373;28;20046;-39
2024/01/21 07:44:00;;;;;;;4.32;3.20;;;;;;;14.42;35.16;101861.53;4993277;28;20060;-40
2024/01/21 07:46:27;;;;;;;4.97;3.28;;;;;;;14.39;35.64;101874.22;5003617;28;20069;-37
2024/01/21 07:48:53;;;;;;;4.40;2.90;;;;;;;14.30;35.54;101868.56;5001893;28;20054;-40
2024/01/21 07:51:20;;;;;;;6.07;3.83;;;;;;;14.25;35.56;101862.69;5004584;28;20133;-41
2024/01/21 07:53:47;;;;;;;4.80;3.42;;;;;;;14.19;35.52;101870.25;5006878;28;20117;-37
2024/01/21 07:56:13;;;;;;;6.82;3.90;;;;;;;14.13;35.27;101868.00;5014253;28;20076;-38
2024/01/21 07:58:40;;;;;;;5.13;3.45;;;;;;;14.06;35.66;101870.22;5012800;28;20134;-40
2024/01/21 08:01:11;;;;;;;4.35;3.20;;;;;;;13.96;36.34;101866.47;5009932;28;20049;-38
2024/01/21 08:03:39;;;;;;;4.50;3.40;;;;;;;13.91;35.69;101863.25;5008008;28;20053;-37
2024/01/21 08:06:09;;;;;;;6.00;3.78;;;;;;;13.84;36.32;101862.81;5008916;28;20344;-37
2024/01/21 08:08:36;;;;;;;6.10;3.63;;;;;;;13.78;36.06;101860.53;5010366;28;20053;-40
2024/01/21 08:11:03;;;;;;;5.50;3.50;;;;;;;13.72;36.33;101875.13;5009643;28;20136;-37
2024/01/21 08:13:30;;;;;;;4.72;3.50;;;;;;;13.67;36.45;101860.38;5005752;28;20430;-40
2024/01/21 08:15:57;;;;;;;6.22;3.50;;;;;;;13.60;36.71;101862.63;5004857;28;20045;-40
2024/01/21 08:18:24;;;;;;;5.53;3.35;;;;;;;13.57;36.32;101870.78;5014188;28;20369;-39
2024/01/21 08:20:52;;;;;;;5.25;3.80;;;;;;;13.52;36.87;101894.22;5010761;28;20082;-40
2024/01/21 08:23:19;;;;;;;5.35;3.47;;;;;;;13.49;36.75;101879.28;5012405;28;20352;-39
2024/01/21 08:25:46;;;;;;;6.30;4.07;;;;;;;13.45;36.55;101887.56;5001497;28;20050;-41
2024/01/21 08:28:13;;;;;;;6.82;4.07;;;;;;;13.43;36.70;101889.50;5003978;28;20085;-40
2024/01/21 08:30:40;;;;;;;5.30;3.42;;;;;;;13.40;36.83;101893.19;5002378;28;20054;-39
2024/01/21 08:33:08;;;;;;;5.68;4.13;;;;;;;13.36;37.17;101899.66;5003940;28;20123;-39
2024/01/21 08:35:36;;;;;;;5.20;4.07;;;;;;;13.32;37.02;101867.06;5001397;28;20050;-39
2024/01/21 08:38:03;;;;;;;5.22;3.60;;;;;;;13.32;37.19;101851.06;5004766;28;20046;-40
2024/01/21 08:40:29;;;;;;;4.75;3.75;;;;;;;13.30;36.80;101860.09;5004395;28;20128;-41
2024/01/21 08:42:56;;;;;;;5.00;3.42;;;;;;;13.30;37.13;101868.09;5010629;28;20065;-39
2024/01/21 08:45:23;;;;;;;5.85;4.18;;;;;;;13.30;37.03;101873.41;5005233;28;20046;-41
2024/01/21 08:47:49;;;;;;;5.45;4.28;;;;;;;13.28;37.04;101889.50;5003539;28;20049;-41
2024/01/21 08:50:16;;;;;;;4.68;3.50;;;;;;;13.28;37.33;101902.81;5005023;28;20052;-41
2024/01/21 08:52:43;;;;;;;5.68;4.13;;;;;;;13.26;37.31;101902.03;5007607;28;20053;-41
2024/01/21 08:55:09;;;;;;;6.38;4.00;;;;;;;13.25;37.17;101895.00;5005308;28;20049;-37
2024/01/21 08:57:36;;;;;;;5.82;3.85;;;;;;;13.27;37.26;101902.91;5000488;28;20457;-40
2024/01/21 09:00:04;;;;;;;5.68;3.70;;;;;;;13.26;37.52;101901.19;4998212;28;20434;-39
2024/01/21 09:02:31;;;;;;;5.45;3.67;;;;;;;13.26;37.45;101907.34;4996895;28;20434;-41
2024/01/21 09:04:58;;;;;;;4.90;3.83;;;;;;;13.25;37.53;101918.13;4994786;28;20050;-40
2024/01/21 09:07:25;;;;;;;4.75;3.45;;;;;;;13.24;37.54;101914.59;5002787;28;20125;-40
2024/01/21 09:09:51;;;;;;;5.43;3.75;;;;;;;13.24;37.40;101901.28;5006293;28;20069;-40
2024/01/21 09:12:18;;;;;;;6.13;4.07;;;;;;;13.24;37.57;101909.28;5004251;28;20050;-41
2024/01/21 09:14:45;;;;;;;5.05;3.72;;;;;;;13.23;37.86;101899.59;5007498;28;20057;-38
2024/01/21 09:17:11;;;;;;;4.85;3.55;;;;;;;13.25;37.75;101904.81;5008920;28;20058;-38
2024/01/21 09:19:38;;;;;;;5.20;3.83;;;;;;;13.24;37.62;101911.09;5004375;28;20115;-40
2024/01/21 09:22:05;;;;;;;5.03;3.90;;;;;;;13.24;37.66;101908.44;5008750;28;20115;-40
2024/01/21 09:24:31;;;;;;;4.93;3.50;;;;;;;13.24;37.86;101911.09;5003839;28;20046;-40
2024/01/21 09:26:58;;;;;;;5.35;3.70;;;;;;;13.23;37.83;101896.94;5009456;28;20061;-40
2024/01/21 09:29:25;;;;;;;5.70;4.05;;;;;;;13.26;37.58;101898.53;5006101;28;20042;-37
2024/01/21 09:31:55;;;;;;;4.68;3.33;;;;;;;13.23;38.01;101899.59;5004787;28;20143;-37
2024/01/21 09:34:22;;;;;;;5.00;3.60;;;;;;;13.24;37.96;101892.44;5006646;28;20116;-40
2024/01/21 09:36:51;;;;;;;5.32;3.35;;;;;;;13.23;38.04;101891.59;5001858;28;20107;-39
2024/01/21 09:39:18;;;;;;;4.72;3.65;;;;;;;13.23;38.19;101893.41;4998392;28;20093;-39
2024/01/21 09:41:52;;;;;;;5.78;3.80;;;;;;;13.23;38.27;101885.44;5005096;28;20049;-39
2024/01/21 09:44:21;;;;;;;5.18;3.50;;;;;;;13.25;38.03;101888.84;4999943;28;20135;-40
2024/01/21 09:47:07;;;;;;;5.25;3.70;;;;;;;13.24;38.22;101905.75;5001269;28;20184;-41
2024/01/21 09:49:34;;;;;;;5.72;3.85;;;;;;;13.25;38.19;101910.13;4999069;28;20088;-40
2024/01/21 09:52:02;;;;;;;4.28;3.30;;;;;;;13.26;38.35;101909.16;5003476;28;20046;-39
2024/01/21 09:54:29;;;;;;;5.30;3.97;;;;;;;13.26;38.29;101901.19;5004921;28;20125;-40
2024/01/21 09:56:56;;;;;;;5.93;3.72;;;;;;;13.25;38.03;101896.81;5003497;28;20378;-39
2024/01/21 09:59:23;;;;;;;5.03;3.83;;;;;;;13.25;38.30;101886.16;5004396;28;20145;-40
2024/01/21 10:01:49;;;;;;;5.25;3.70;;;;;;;13.25;38.38;101875.53;5000645;28;20054;-39
2024/01/21 10:04:16;;;;;;;6.03;3.72;;;;;;;13.25;38.21;101875.53;4996563;28;20061;-40
2024/01/21 10:06:43;;;;;;;4.47;3.33;;;;;;;13.25;38.40;101876.38;5009425;28;20160;-40
2024/01/21 10:09:16;;;;;;;5.28;3.33;;;;;;;13.26;39.34;101891.38;4996421;28;20172;-43
2024/01/21 10:11:48;;;;;;;5.70;3.58;;;;;;;13.30;39.43;101913.34;4990306;28;20085;-42
2024/01/21 10:14:15;;;;;;;7.15;4.72;;;;;;;13.34;39.44;101905.06;4995179;28;20130;-42
2024/01/21 10:16:43;;;;;;;9.27;5.18;;;;;;;13.41;39.49;101902.03;4999685;28;20135;-41
2024/01/21 10:19:14;;;;;;;9.02;5.45;;;;;;;13.45;39.84;101909.72;4996619;28;20042;-38
2024/01/21 10:21:41;;;;;;;8.70;5.70;;;;;;;13.48;39.36;101895.38;5000930;28;20048;-43
2024/01/21 10:24:10;;;;;;;11.02;6.75;;;;;;;13.52;39.95;101895.06;5001079;28;20108;-40
2024/01/21 10:26:38;;;;;;;16.35;7.40;;;;;;;13.55;40.70;101896.69;5003306;28;20100;-41
2024/01/21 10:29:04;;;;;;;14.50;8.85;;;;;;;13.60;40.76;101907.03;5003529;28;20101;-43
2024/01/21 10:31:34;;;;;;;14.32;8.88;;;;;;;13.62;40.74;101887.31;4964823;28;20491;-43
2024/01/21 10:34:02;;;;;;;15.10;9.80;;;;;;;13.65;40.82;101891.63;4998354;28;20054;-43
2024/01/21 10:36:36;;;;;;;18.70;11.70;;;;;;;13.67;41.18;101877.25;5001981;28;20049;-39
2024/01/21 10:39:06;;;;;;;19.45;12.63;;;;;;;13.72;41.37;101867.13;5002425;28;20314;-41
2024/01/21 10:41:35;;;;;;;20.55;12.48;;;;;;;13.78;41.77;101863.22;4998821;28;20254;-41
2024/01/21 10:44:02;;;;;;;21.05;12.52;;;;;;;13.82;42.06;101859.38;5001209;28;20488;-41
2024/01/21 10:46:35;;;;;;;21.45;13.98;;;;;;;13.87;42.13;101851.09;5000004;28;20556;-41
2024/01/21 10:49:03;;;;;;;21.07;13.17;;;;;;;13.92;42.23;101860.50;5000015;28;20326;-43
2024/01/21 10:51:30;;;;;;;19.85;12.93;;;;;;;13.95;42.03;101862.97;4966091;28;20054;-41
2024/01/21 10:53:59;;;;;;;22.83;13.38;;;;;;;13.97;42.60;101860.19;5003575;28;20057;-41
2024/01/21 10:56:26;;;;;;;19.85;12.57;;;;;;;13.97;41.86;101861.03;5004547;28;20081;-41
2024/01/21 10:58:53;;;;;;;21.65;13.02;;;;;;;14.00;42.07;101862.66;4999873;28;20458;-42
2024/01/21 11:01:22;;;;;;;21.88;12.82;;;;;;;14.01;41.71;101856.34;5002366;28;20050;-42
2024/01/21 11:03:52;;;;;;;20.27;12.77;;;;;;;14.05;41.84;101863.19;5001476;28;20050;-43
2024/01/21 11:06:19;;;;;;;18.00;11.68;;;;;;;14.06;41.16;101873.75;5001462;28;20179;-42
2024/01/21 11:08:49;;;;;;;18.00;11.43;;;;;;;14.08;41.23;101876.31;5001071;28;20438;-42
2024/01/21 11:11:17;;;;;;;18.75;11.48;;;;;;;14.09;41.28;101886.03;4959794;28;20753;-42
2024/01/21 11:13:49;;;;;;;17.77;11.10;;;;;;;14.11;41.00;101888.56;5005049;28;20165;-42
2024/01/21 11:16:30;;;;;;;17.08;11.02;;;;;;;14.10;41.48;101882.41;5003486;28;20057;-41
2024/01/21 11:19:06;;;;;;;16.17;10.50;;;;;;;14.12;41.39;101888.50;5001748;28;20058;-42
2024/01/21 11:21:42;;;;;;;15.77;10.40;;;;;;;14.12;41.05;101875.16;5003942;28;20049;-43